Saint Bonnet de Bellac- Haute Vienne - France
Donnes mto: mardi / mercredi, 31/10/2012
Date Horaire Temp. E. Hum. E. P.atmo. Pluie Vent Direction Direction Ensoleilleme Solaire P. de rose Temp au vent Rafales
30/10/2012 16:00 13,5 C 57 % 1005,3 hPa 0,0 mm 0,7 km/h (0 Bft) NE 45 0 min 0 W/m 5,2 C 13,5 C 4,0 km/h (1 Bft)
30/10/2012 16:30 12,6 C 58 % 1004,9 hPa 0,0 mm 0,0 km/h (0 Bft) N-NE 22 0 min 0 W/m 4,6 C 12,6 C 0,0 km/h (0 Bft)
30/10/2012 17:00 11,5 C 60 % 1004,8 hPa 0,0 mm 1,4 km/h (1 Bft) N-NE 22 0 min 0 W/m 4,0 C 11,5 C 3,6 km/h (1 Bft)
30/10/2012 17:30 11,1 C 62 % 1004,6 hPa 0,0 mm 0,0 km/h (0 Bft) N-NE 22 0 min 0 W/m 4,1 C 11,1 C 0,0 km/h (0 Bft)
30/10/2012 18:00 9,1 C 64 % 1004,7 hPa 0,0 mm 0,0 km/h (0 Bft) N-NE 22 0 min 0 W/m 2,7 C 9,1 C 0,0 km/h (0 Bft)
30/10/2012 18:30 7,4 C 67 % 1004,6 hPa 0,0 mm 0,0 km/h (0 Bft) N-NE 22 0 min 0 W/m 1,7 C 7,4 C 0,0 km/h (0 Bft)
30/10/2012 19:00 5,9 C 70 % 1004,8 hPa 0,0 mm 0,0 km/h (0 Bft) N-NE 22 0 min 0 W/m 0,9 C 5,9 C 0,0 km/h (0 Bft)
30/10/2012 19:30 5,1 C 72 % 1004,7 hPa 0,0 mm 0,0 km/h (0 Bft) NE 45 0 min 0 W/m 0,5 C 5,1 C 0,0 km/h (0 Bft)
30/10/2012 20:00 4,3 C 74 % 1004,5 hPa 0,0 mm 0,0 km/h (0 Bft) N-NE 22 0 min 0 W/m 0,1 C 4,3 C 0,0 km/h (0 Bft)
30/10/2012 20:30 3,8 C 76 % 1004,3 hPa 0,0 mm 0,0 km/h (0 Bft) E 90 0 min 0 W/m -0,0 C 3,8 C 0,0 km/h (0 Bft)
30/10/2012 21:00 3,2 C 76 % 1004,2 hPa 0,0 mm 0,0 km/h (0 Bft) E 90 0 min 0 W/m -0,6 C 3,2 C 0,0 km/h (0 Bft)
30/10/2012 21:30 2,8 C 79 % 1004,2 hPa 0,0 mm 0,0 km/h (0 Bft) E 90 0 min 0 W/m -0,5 C 2,8 C 0,0 km/h (0 Bft)
30/10/2012 22:00 2,6 C 81 % 1004,0 hPa 0,0 mm 0,0 km/h (0 Bft) E 90 0 min 0 W/m -0,3 C 2,6 C 0,0 km/h (0 Bft)
30/10/2012 22:30 2,2 C 82 % 1003,9 hPa 0,0 mm 0,4 km/h (0 Bft) E-SE 112 0 min 0 W/m -0,5 C 2,2 C 3,6 km/h (1 Bft)
30/10/2012 23:00 2,6 C 85 % 1003,6 hPa 0,0 mm 1,1 km/h (1 Bft) E-SE 112 0 min 0 W/m 0,3 C 2,6 C 1,1 km/h (1 Bft)
30/10/2012 23:30 2,4 C 86 % 1003,5 hPa 0,0 mm 4,0 km/h (1 Bft) E-SE 112 0 min 0 W/m 0,3 C 2,4 C 4,0 km/h (1 Bft)
31/10/2012 00:00 2,3 C 86 % 1003,2 hPa 0,0 mm 2,5 km/h (1 Bft) E 90 0 min 0 W/m 0,2 C 2,3 C 4,3 km/h (1 Bft)
31/10/2012 00:30 1,9 C 87 % 1003,0 hPa 0,0 mm 0,4 km/h (0 Bft) E-SE 112 0 min 0 W/m -0,0 C 1,9 C 3,6 km/h (1 Bft)
31/10/2012 01:00 1,4 C 87 % 1002,6 hPa 0,0 mm 1,1 km/h (1 Bft) E-NE 67 0 min 0 W/m -0,5 C 1,4 C 3,6 km/h (1 Bft)
31/10/2012 01:30 1,4 C 87 % 1002,3 hPa 0,0 mm 2,2 km/h (1 Bft) E 90 0 min 0 W/m -0,5 C 1,4 C 4,3 km/h (1 Bft)
31/10/2012 02:02 1,4 C 87 % 1002,2 hPa 0,0 mm 0,0 km/h (0 Bft) E 90 0 min 0 W/m -0,5 C 1,4 C 0,0 km/h (0 Bft)
31/10/2012 02:30 1,1 C 87 % 1002,1 hPa 0,0 mm 1,4 km/h (1 Bft) E 90 0 min 0 W/m -0,8 C 1,1 C 4,0 km/h (1 Bft)
31/10/2012 03:00 1,4 C 88 % 1001,8 hPa 0,0 mm 4,7 km/h (1 Bft) E-SE 112 0 min 0 W/m -0,4 C 0,1 C 7,2 km/h (2 Bft)
31/10/2012 03:30 1,4 C 88 % 1001,3 hPa 0,0 mm 1,8 km/h (1 Bft) E-SE 112 0 min 0 W/m -0,4 C 1,4 C 3,6 km/h (1 Bft)
31/10/2012 04:00 1,2 C 88 % 1001,0 hPa 0,0 mm 0,0 km/h (0 Bft) E-SE 112 0 min 0 W/m -0,6 C 1,2 C 1,4 km/h (1 Bft)
31/10/2012 04:30 1,3 C 88 % 1000,6 hPa 0,0 mm 2,2 km/h (1 Bft) SE 135 0 min 0 W/m -0,5 C 1,3 C 4,3 km/h (1 Bft)
31/10/2012 05:00 1,2 C 88 % 1000,4 hPa 0,0 mm 1,1 km/h (1 Bft) E 90 0 min 0 W/m -0,6 C 1,2 C 2,9 km/h (1 Bft)
31/10/2012 05:30 1,1 C 89 % 1000,2 hPa 0,0 mm 2,2 km/h (1 Bft) E-SE 112 0 min 0 W/m -0,5 C 1,1 C 3,2 km/h (1 Bft)
31/10/2012 06:00 0,6 C 89 % 1000,1 hPa 0,0 mm 0,0 km/h (0 Bft) E-SE 112 0 min 0 W/m -1,0 C 0,6 C 0,0 km/h (0 Bft)
31/10/2012 06:30 0,5 C 89 % 1000,0 hPa 0,0 mm 0,4 km/h (0 Bft) E 90 0 min 0 W/m -1,1 C 0,5 C 3,2 km/h (1 Bft)
31/10/2012 07:00 1,3 C 89 % 999,9 hPa 0,0 mm 0,0 km/h (0 Bft) E-SE 112 0 min 0 W/m -0,3 C 1,3 C 0,0 km/h (0 Bft)
31/10/2012 07:30 1,3 C 89 % 999,6 hPa 0,0 mm 0,0 km/h (0 Bft) E 90 0 min 0 W/m -0,3 C 1,3 C 0,0 km/h (0 Bft)
31/10/2012 08:00 1,4 C 89 % 999,7 hPa 0,0 mm 1,8 km/h (1 Bft) E-SE 112 0 min 0 W/m -0,2 C 1,4 C 4,3 km/h (1 Bft)
31/10/2012 08:15 1,6 C 89 % 999,8 hPa 0,0 mm 0,0 km/h (0 Bft) E-SE 112 0 min 0 W/m -0,0 C 1,6 C 0,0 km/h (0 Bft)
31/10/2012 08:30 2,8 C 91 % 999,7 hPa 0,0 mm 0,0 km/h (0 Bft) E-SE 112 0 min 0 W/m 1,5 C 2,8 C 0,0 km/h (0 Bft)
31/10/2012 08:45 4,1 C 89 % 999,9 hPa 0,0 mm 0,4 km/h (0 Bft) SE 135 0 min 0 W/m 2,5 C 4,1 C 3,2 km/h (1 Bft)
31/10/2012 09:00 3,5 C 88 % 1000,0 hPa 0,0 mm 0,0 km/h (0 Bft) S-SE 157 0 min 0 W/m 1,7 C 3,5 C 0,0 km/h (0 Bft)
31/10/2012 09:15 3,3 C 88 % 1000,0 hPa 0,0 mm 0,0 km/h (0 Bft) SE 135 0 min 0 W/m 1,5 C 3,3 C 0,0 km/h (0 Bft)
31/10/2012 09:30 3,4 C 88 % 1000,0 hPa 0,0 mm 0,0 km/h (0 Bft) SE 135 0 min 0 W/m 1,6 C 3,4 C 0,0 km/h (0 Bft)
31/10/2012 09:45 3,8 C 89 % 999,9 hPa 0,0 mm 0,0 km/h (0 Bft) E-SE 112 0 min 0 W/m 2,2 C 3,8 C 2,9 km/h (1 Bft)
31/10/2012 10:00 4,6 C 89 % 999,7 hPa 0,0 mm 0,0 km/h (0 Bft) E 90 0 min 0 W/m 2,9 C 4,6 C 0,0 km/h (0 Bft)
31/10/2012 10:15 5,7 C 89 % 999,5 hPa 0,0 mm 0,0 km/h (0 Bft) E 90 0 min 0 W/m 4,0 C 5,7 C 0,0 km/h (0 Bft)
31/10/2012 10:30 6,9 C 87 % 999,5 hPa 0,0 mm 0,0 km/h (0 Bft) E 90 0 min 0 W/m 4,9 C 6,9 C 0,0 km/h (0 Bft)
31/10/2012 10:45 7,1 C 87 % 999,5 hPa 0,0 mm 0,0 km/h (0 Bft) E 90 0 min 0 W/m 5,1 C 7,1 C 0,0 km/h (0 Bft)
31/10/2012 11:00 7,4 C 87 % 999,4 hPa 0,0 mm 0,0 km/h (0 Bft) E 90 0 min 0 W/m 5,4 C 7,4 C 0,0 km/h (0 Bft)
31/10/2012 11:15 8,1 C 86 % 999,2 hPa 0,0 mm 0,0 km/h (0 Bft) E 90 0 min 0 W/m 5,9 C 8,1 C 0,0 km/h (0 Bft)
31/10/2012 11:30 8,6 C 87 % 999,4 hPa 0,0 mm 0,0 km/h (0 Bft) E 90 0 min 0 W/m 6,6 C 8,6 C 0,0 km/h (0 Bft)
31/10/2012 11:45 9,8 C 87 % 999,3 hPa 0,0 mm 0,0 km/h (0 Bft) SE 135 0 min 0 W/m 7,7 C 9,8 C 0,0 km/h (0 Bft)
31/10/2012 12:00 10,6 C 85 % 999,2 hPa 0,0 mm 3,2 km/h (1 Bft) SO 225 0 min 0 W/m 8,2 C 10,6 C 7,6 km/h (2 Bft)
31/10/2012 12:15 11,4 C 83 % 998,8 hPa 0,0 mm 1,8 km/h (1 Bft) O-SO 247 0 min 0 W/m 8,6 C 11,4 C 8,3 km/h (2 Bft)
31/10/2012 12:30 11,9 C 80 % 998,5 hPa 0,0 mm 5,0 km/h (1 Bft) SO 225 0 min 0 W/m 8,6 C 11,9 C 9,4 km/h (2 Bft)
31/10/2012 12:45 12,1 C 78 % 998,3 hPa 0,0 mm 7,9 km/h (2 Bft) O-SO 247 0 min 0 W/m 8,4 C 12,1 C 7,9 km/h (2 Bft)
31/10/2012 13:00 12,3 C 78 % 998,1 hPa 0,0 mm 2,5 km/h (1 Bft) S 180 0 min 0 W/m 8,6 C 12,3 C 4,3 km/h (1 Bft)
31/10/2012 13:15 12,8 C 77 % 997,9 hPa 0,0 mm 1,4 km/h (1 Bft) S 180 0 min 0 W/m 8,9 C 12,8 C 6,8 km/h (2 Bft)
31/10/2012 13:30 12,9 C 76 % 997,6 hPa 0,0 mm 2,9 km/h (1 Bft) S 180 0 min 0 W/m 8,8 C 12,9 C 2,9 km/h (1 Bft)
31/10/2012 13:45 13,4 C 75 % 997,6 hPa 0,0 mm 2,2 km/h (1 Bft) S-SO 202 0 min 0 W/m 9,1 C 13,4 C 3,2 km/h (1 Bft)
31/10/2012 14:00 13,4 C 75 % 997,3 hPa 0,0 mm 0,7 km/h (0 Bft) S 180 0 min 0 W/m 9,1 C 13,4 C 4,3 km/h (1 Bft)
31/10/2012 14:15 13,4 C 76 % 997,1 hPa 0,0 mm 0,0 km/h (0 Bft) SO 225 0 min 0 W/m 9,3 C 13,4 C 0,0 km/h (0 Bft)
31/10/2012 14:30 13,5 C 76 % 996,9 hPa 0,0 mm 1,1 km/h (1 Bft) SO 225 0 min 0 W/m 9,4 C 13,5 C 3,6 km/h (1 Bft)
31/10/2012 14:45 13,6 C 76 % 996,8 hPa 0,0 mm 0,0 km/h (0 Bft) O-SO 247 0 min 0 W/m 9,4 C 13,6 C 0,0 km/h (0 Bft)
31/10/2012 15:00 13,7 C 75 % 996,8 hPa 0,0 mm 1,8 km/h (1 Bft) S 180 0 min 0 W/m 9,3 C 13,7 C 3,6 km/h (1 Bft)
31/10/2012 15:15 13,5 C 76 % 996,7 hPa 0,0 mm 0,7 km/h (0 Bft) O 270 0 min 0 W/m 9,4 C 13,5 C 3,2 km/h (1 Bft)
31/10/2012 15:30 13,2 C 76 % 996,5 hPa 0,0 mm 0,0 km/h (0 Bft) SO 225 0 min 0 W/m 9,1 C 13,2 C 0,0 km/h (0 Bft)
31/10/2012 15:45 12,9 C 76 % 996,3 hPa 0,0 mm 5,4 km/h (2 Bft) SO 225 0 min 0 W/m 8,8 C 12,9 C 6,8 km/h (2 Bft)
31/10/2012 15:59 0,0 C 82 % 996,1 hPa 0,0 mm 0,0 km/h (0 Bft) N 360 0 min 0 W/m -2,7 C 0,0 C 0,0 km/h (0 Bft)
31/10/2012 15:59 0,0 C 87 % 1015,6 hPa 0,0 mm 0,0 km/h (0 Bft) N 360 0 min 0 W/m -1,9 C 0,0 C 0,0 km/h (0 Bft)
_ Min-Heure 15:59 16:00 15:59 - 15:59 - - - - 15:59 15:59 15:59
Minimum _ 0,0 C 57 % 996,1 hPa - 0,0 km/h (0 Bft) - - - - -2,7 C 0,0 C 0,0 km/h (0 Bft)
_ Max-Heure 15:00 08:30 15:59 15:59 12:45 - - 15:59 15:59 14:45 15:00 12:30
Maximum _ 13,7 C 91 % 1015,6 hPa 0,0 mm 7,9 km/h
O-SO (2 Bft)
- - 0 min 0 W/m 9,4 C 13,7 C 9,4 km/h
SO (2 Bft)
Moyenne _ 5,9 C 80 % 1001,6 hPa #0,0 mm 1,0 km/h (0 Bft) E - #0 min. 0 W/m 2,4 C 5,8 C 2,2 km/h (1 Bft)
Saint Bonnet de Bellac- Haute Vienne - France